Time;durP1;ratioP1;P1;durP2;ratioP2;P2;SDS_P1;SDS_P2;PMS_P1;PMS_P2;Temp;Humidity;BMP_temperature;BMP_pressure;BME280_temperature;BME280_humidity;BME280_pressure;Samples;Min_cycle;Max_cycle;Signal;HPM_P1;HPM_P2
2022/09/12 00:00:05;;;;;;;14.50;12.20;;;;;;;11.52;100.00;97675.01;105608;1282;22542;-89
2022/09/12 00:02:58;;;;;;;12.80;11.70;;;;;;;11.51;100.00;97677.96;105670;1282;25449;-90
2022/09/12 00:05:27;;;;;;;13.10;11.90;;;;;;;11.49;100.00;97679.55;107259;1282;22574;-89
2022/09/12 00:07:54;;;;;;;13.50;11.80;;;;;;;11.48;100.00;97679.17;107269;1282;22618;-89
2022/09/12 00:10:22;;;;;;;13.80;12.60;;;;;;;11.48;100.00;97682.41;105842;1282;24408;-89
2022/09/12 00:12:51;;;;;;;14.30;12.80;;;;;;;11.46;100.00;97681.70;105567;1282;22709;-89
2022/09/12 00:15:19;;;;;;;15.70;13.90;;;;;;;11.45;100.00;97683.67;105591;1282;22704;-90
2022/09/12 00:17:47;;;;;;;14.00;12.60;;;;;;;11.41;100.00;97686.79;105654;1282;24351;-90
2022/09/12 00:20:16;;;;;;;15.60;14.00;;;;;;;11.36;100.00;97688.54;105684;1282;24326;-88
2022/09/12 00:22:44;;;;;;;14.60;13.10;;;;;;;11.33;100.00;97690.56;105624;1282;24250;-90
2022/09/12 00:25:12;;;;;;;15.60;14.00;;;;;;;11.31;100.00;97694.37;105664;1282;22677;-89
2022/09/12 00:27:40;;;;;;;16.90;13.10;;;;;;;11.29;100.00;97692.67;105605;1282;22650;-94
2022/09/12 00:30:08;;;;;;;21.80;14.10;;;;;;;11.29;100.00;97691.14;105357;1282;22886;-91
2022/09/12 00:32:36;;;;;;;15.80;14.20;;;;;;;11.26;100.00;97692.89;105460;1282;22572;-88
2022/09/12 00:35:04;;;;;;;14.50;13.10;;;;;;;11.22;100.00;97688.52;105669;1282;22653;-91
2022/09/12 00:37:33;;;;;;;15.10;13.70;;;;;;;11.19;100.00;97689.29;105500;1282;24379;-92
2022/09/12 00:40:02;;;;;;;14.60;13.20;;;;;;;11.18;100.00;97685.16;105672;1282;22575;-88
2022/09/12 00:42:30;;;;;;;14.00;12.30;;;;;;;11.17;100.00;97684.33;105484;1284;22721;-88
2022/09/12 00:44:58;;;;;;;14.20;12.90;;;;;;;11.16;100.00;97692.21;105676;1282;22559;-91
2022/09/12 00:47:28;;;;;;;14.70;13.20;;;;;;;11.13;100.00;97690.08;105589;1282;22622;-88
2022/09/12 00:50:12;;;;;;;14.20;13.00;;;;;;;11.11;100.00;97686.35;105685;1282;22490;-89
2022/09/12 00:52:50;;;;;;;15.20;13.60;;;;;;;11.08;100.00;97686.63;105738;1282;22760;-87
2022/09/12 00:55:22;;;;;;;15.50;14.00;;;;;;;11.07;100.00;97684.14;105738;1282;24280;-90
2022/09/12 00:57:58;;;;;;;13.30;12.00;;;;;;;11.05;100.00;97687.41;105638;1282;22573;-90
2022/09/12 01:00:27;;;;;;;13.50;12.20;;;;;;;11.05;100.00;97687.89;105705;1282;24395;-91
2022/09/12 01:03:04;;;;;;;14.00;12.80;;;;;;;11.05;100.00;97687.98;105548;1284;22585;-90
2022/09/12 01:05:35;;;;;;;13.50;12.30;;;;;;;11.04;100.00;97687.70;105463;1283;22566;-91
2022/09/12 01:08:05;;;;;;;14.20;12.80;;;;;;;11.04;100.00;97691.23;105585;1282;22547;-91
2022/09/12 01:10:34;;;;;;;17.10;12.60;;;;;;;11.05;100.00;97688.36;105670;1282;25237;-90
2022/09/12 01:13:06;;;;;;;14.40;13.00;;;;;;;11.05;100.00;97687.42;105673;1282;22565;-89
2022/09/12 01:15:37;;;;;;;17.00;12.30;;;;;;;11.05;100.00;97689.34;105735;1281;22720;-91
2022/09/12 01:18:11;;;;;;;13.90;12.50;;;;;;;11.06;100.00;97688.41;105698;1282;22484;-88
2022/09/12 01:21:13;;;;;;;13.50;12.30;;;;;;;11.05;100.00;97688.05;105680;1282;24223;-91
2022/09/12 01:23:44;;;;;;;14.40;12.90;;;;;;;11.04;100.00;97693.22;105686;1282;22608;-90
2022/09/12 01:26:40;;;;;;;14.30;12.90;;;;;;;11.05;100.00;97692.96;105722;1282;24324;-90
2022/09/12 01:29:11;;;;;;;14.70;13.10;;;;;;;11.08;100.00;97687.27;105605;1282;25424;-90
2022/09/12 01:31:47;;;;;;;15.70;14.10;;;;;;;11.07;100.00;97688.60;105629;1282;22707;-89
2022/09/12 01:34:48;;;;;;;15.70;14.10;;;;;;;11.05;100.00;97687.13;105652;1282;25109;-90
2022/09/12 01:37:53;;;;;;;14.80;13.30;;;;;;;11.08;100.00;97694.30;105470;1284;22573;-89
2022/09/12 01:40:38;;;;;;;14.50;13.10;;;;;;;11.12;100.00;97695.75;105284;1285;25425;-89
2022/09/12 01:43:21;;;;;;;15.90;13.60;;;;;;;11.14;100.00;97694.83;105543;1284;24297;-89
2022/09/12 01:45:59;;;;;;;15.40;13.80;;;;;;;11.15;100.00;97690.19;105489;1284;25289;-90
2022/09/12 01:48:36;;;;;;;16.10;14.60;;;;;;;11.16;100.00;97689.23;105461;1284;22715;-91
2022/09/12 01:51:18;;;;;;;16.10;14.50;;;;;;;11.16;100.00;97690.44;105466;1284;24254;-91
2022/09/12 01:53:56;;;;;;;17.10;15.10;;;;;;;11.13;100.00;97693.09;105449;1284;22693;-89
2022/09/12 01:56:28;;;;;;;15.40;14.00;;;;;;;11.13;100.00;97687.09;107600;1284;22544;-89
2022/09/12 01:59:20;;;;;;;16.50;14.80;;;;;;;11.15;100.00;97688.63;106815;1284;22722;-89
2022/09/12 02:01:57;;;;;;;15.30;14.00;;;;;;;11.16;100.00;97688.23;105410;1284;25473;-90
2022/09/12 02:04:32;;;;;;;17.30;15.70;;;;;;;11.16;100.00;97690.48;105458;1285;24417;-89
2022/09/12 02:07:10;;;;;;;17.90;16.30;;;;;;;11.15;100.00;97691.42;105445;1285;24260;-88
2022/09/12 02:09:48;;;;;;;17.70;16.20;;;;;;;11.17;100.00;97695.27;105441;1285;22925;-90
2022/09/12 02:12:24;;;;;;;19.90;18.10;;;;;;;11.15;100.00;97690.41;105432;1284;25392;-90
2022/09/12 02:15:01;;;;;;;16.80;15.30;;;;;;;11.11;100.00;97694.54;105398;1284;24506;-91
2022/09/12 02:17:34;;;;;;;19.20;17.40;;;;;;;11.14;100.00;97696.20;105400;1284;24101;-87
2022/09/12 02:20:09;;;;;;;18.80;17.10;;;;;;;11.13;100.00;97697.34;105436;1284;25255;-90
2022/09/12 02:22:51;;;;;;;17.40;15.80;;;;;;;11.15;100.00;97698.82;105427;1283;24222;-89
2022/09/12 02:25:22;;;;;;;17.10;15.70;;;;;;;11.17;100.00;97692.13;105504;1284;24426;-87
2022/09/12 02:28:03;;;;;;;18.30;16.70;;;;;;;11.19;100.00;97695.05;105600;1284;23938;-90
2022/09/12 02:30:41;;;;;;;16.20;14.20;;;;;;;11.17;100.00;97696.77;105563;1284;23832;-89
2022/09/12 02:33:37;;;;;;;17.00;15.40;;;;;;;11.16;100.00;97695.62;105516;1284;23111;-90
2022/09/12 02:36:21;;;;;;;16.70;14.70;;;;;;;11.17;100.00;97695.04;105661;1284;22731;-88
2022/09/12 02:38:49;;;;;;;17.50;15.20;;;;;;;11.19;100.00;97694.56;105909;1282;22579;-89
2022/09/12 02:41:19;;;;;;;16.60;15.00;;;;;;;11.19;100.00;97696.40;105605;1282;24007;-88
2022/09/12 02:43:49;;;;;;;16.80;15.30;;;;;;;11.19;100.00;97691.16;105631;1284;25219;-89
2022/09/12 02:46:36;;;;;;;17.70;16.10;;;;;;;11.19;100.00;97695.92;105991;1282;26795;-90
2022/09/12 02:49:04;;;;;;;18.30;16.70;;;;;;;11.19;100.00;97695.11;105608;1283;24788;-88
2022/09/12 02:51:34;;;;;;;18.50;16.60;;;;;;;11.16;100.00;97697.77;105993;1282;22676;-88
2022/09/12 02:54:06;;;;;;;17.20;15.60;;;;;;;11.12;100.00;97694.14;107172;1282;22538;-89
2022/09/12 02:56:34;;;;;;;17.60;16.00;;;;;;;11.06;100.00;97696.77;105968;1282;24274;-90
2022/09/12 02:59:07;;;;;;;16.20;14.50;;;;;;;11.01;100.00;97692.91;105582;1282;25438;-88
2022/09/12 03:01:55;;;;;;;17.50;16.00;;;;;;;10.96;100.00;97690.60;105593;1282;24088;-90
2022/09/12 03:04:47;;;;;;;20.50;18.60;;;;;;;10.88;100.00;97690.79;105576;1283;22545;-89
2022/09/12 03:07:38;;;;;;;22.00;20.10;;;;;;;10.79;100.00;97694.33;105514;1283;25397;-90
2022/09/12 03:10:24;;;;;;;20.50;18.90;;;;;;;10.75;100.00;97696.83;105656;1282;25952;-89
2022/09/12 03:13:09;;;;;;;23.90;22.00;;;;;;;10.71;100.00;97697.21;105603;1282;25364;-89
2022/09/12 03:15:37;;;;;;;;;;;;;;;10.66;100.00;97698.05;105594;1282;22571;-92
2022/09/12 03:18:45;;;;;;;22.70;20.30;;;;;;;10.63;100.00;97698.95;105638;1282;24250;-89
2022/09/12 03:21:16;;;;;;;25.20;18.10;;;;;;;10.62;100.00;97704.64;105186;1282;22587;-90
2022/09/12 03:24:03;;;;;;;14.80;13.50;;;;;;;10.62;100.00;97705.98;105613;1282;22541;-88
2022/09/12 03:26:43;;;;;;;15.50;13.70;;;;;;;10.62;100.00;97706.40;105553;1282;24189;-87
2022/09/12 03:29:13;;;;;;;14.50;13.20;;;;;;;10.63;100.00;97709.95;105641;1282;22562;-89
2022/09/12 03:31:56;;;;;;;13.80;12.60;;;;;;;10.63;100.00;97709.26;105639;1284;22568;-89
2022/09/12 03:34:26;;;;;;;14.50;12.00;;;;;;;10.62;100.00;97716.48;105719;1282;24344;-87
2022/09/12 03:36:54;;;;;;;12.90;11.60;;;;;;;10.58;100.00;97715.44;105620;1282;22715;-89
2022/09/12 03:39:25;;;;;;;13.10;11.90;;;;;;;10.52;100.00;97715.58;105614;1283;22666;-89
2022/09/12 03:41:54;;;;;;;14.60;12.80;;;;;;;10.48;100.00;97712.53;105595;1283;25241;-90
2022/09/12 03:44:23;;;;;;;17.70;14.10;;;;;;;10.42;100.00;97711.63;105633;1284;25225;-90
2022/09/12 03:46:51;;;;;;;17.10;15.50;;;;;;;10.39;100.00;97714.73;107117;1282;22552;-89
2022/09/12 03:49:19;;;;;;;15.30;14.10;;;;;;;10.34;100.00;97713.38;107561;1282;22566;-89
2022/09/12 03:51:47;;;;;;;15.80;14.30;;;;;;;10.28;100.00;97712.62;106336;1284;25414;-88
2022/09/12 03:54:15;;;;;;;16.50;14.90;;;;;;;10.27;100.00;97713.92;105497;1284;25307;-89
2022/09/12 03:56:43;;;;;;;17.70;16.10;;;;;;;10.24;100.00;97714.52;105397;1284;22536;-89
2022/09/12 03:59:11;;;;;;;18.80;17.10;;;;;;;10.20;100.00;97714.38;105537;1283;23951;-89
2022/09/12 04:01:40;;;;;;;19.30;17.40;;;;;;;10.14;100.00;97718.59;105494;1284;22546;-90
2022/09/12 04:04:08;;;;;;;18.90;17.30;;;;;;;10.11;100.00;97723.45;105549;1284;22540;-89
2022/09/12 04:06:37;;;;;;;18.80;17.20;;;;;;;10.10;100.00;97723.63;105531;1284;25331;-90
2022/09/12 04:09:05;;;;;;;17.20;15.50;;;;;;;10.09;100.00;97723.52;105537;1283;22579;-89
2022/09/12 04:11:34;;;;;;;19.50;17.60;;;;;;;10.10;100.00;97727.38;105542;1282;22723;-90
2022/09/12 04:14:02;;;;;;;18.30;16.70;;;;;;;10.11;100.00;97730.48;105543;1284;24455;-90
2022/09/12 04:16:31;;;;;;;18.60;16.80;;;;;;;10.13;100.00;97727.66;105533;1284;24198;-88
2022/09/12 04:18:59;;;;;;;19.20;17.60;;;;;;;10.15;100.00;97732.85;105506;1284;25489;-88
2022/09/12 04:21:27;;;;;;;19.30;17.50;;;;;;;10.16;100.00;97734.70;105531;1282;24253;-90
2022/09/12 04:23:54;;;;;;;17.90;16.10;;;;;;;10.15;100.00;97732.48;105547;1282;24416;-88
2022/09/12 04:26:23;;;;;;;17.30;15.00;;;;;;;10.13;100.00;97732.45;105590;1283;22528;-88
2022/09/12 04:28:56;;;;;;;14.00;12.80;;;;;;;10.10;100.00;97736.96;105568;1284;25314;-89
2022/09/12 04:31:25;;;;;;;15.80;14.20;;;;;;;10.09;100.00;97731.45;105325;1285;22713;-87
2022/09/12 04:33:59;;;;;;;15.50;14.10;;;;;;;10.09;100.00;97737.27;105419;1284;25246;-88
2022/09/12 04:36:28;;;;;;;17.30;15.60;;;;;;;10.09;100.00;97737.31;105957;1282;24285;-88
2022/09/12 04:38:57;;;;;;;19.10;17.20;;;;;;;10.07;100.00;97737.67;106154;1283;22540;-89
2022/09/12 04:41:31;;;;;;;18.30;16.50;;;;;;;10.06;100.00;97739.30;106282;1282;24017;-87
2022/09/12 04:44:01;;;;;;;17.70;16.20;;;;;;;10.04;100.00;97733.70;106179;1284;24373;-89
2022/09/12 04:46:35;;;;;;;19.60;17.50;;;;;;;10.07;100.00;97740.27;106423;1283;22563;-89
2022/09/12 04:49:04;;;;;;;17.20;15.70;;;;;;;10.08;100.00;97739.98;105575;1284;22647;-90
2022/09/12 04:51:35;;;;;;;19.50;17.50;;;;;;;10.09;100.00;97745.08;105532;1284;22553;-90
2022/09/12 04:54:11;;;;;;;18.70;17.00;;;;;;;10.10;100.00;97748.66;105577;1284;22563;-92
2022/09/12 04:56:42;;;;;;;20.50;18.70;;;;;;;10.10;100.00;97749.84;105509;1284;22567;-89
2022/09/12 04:59:12;;;;;;;21.70;19.80;;;;;;;10.08;100.00;97755.43;106027;1284;24232;-88
2022/09/12 05:01:40;;;;;;;18.60;16.90;;;;;;;10.07;100.00;97754.16;105509;1284;25335;-88
2022/09/12 05:04:11;;;;;;;19.30;17.30;;;;;;;10.09;100.00;97755.52;105572;1284;22524;-89
2022/09/12 05:06:41;;;;;;;19.20;17.60;;;;;;;10.09;100.00;97761.70;105946;1282;24425;-88
2022/09/12 05:09:13;;;;;;;21.40;17.80;;;;;;;10.10;100.00;97765.08;105578;1283;25622;-89
2022/09/12 05:11:43;;;;;;;17.90;16.30;;;;;;;10.14;100.00;97763.34;105598;1283;22564;-87
2022/09/12 05:14:31;;;;;;;15.90;14.40;;;;;;;10.16;100.00;97765.77;105543;1282;25244;-89
2022/09/12 05:17:00;;;;;;;16.00;14.60;;;;;;;10.19;100.00;97764.38;105483;1283;22766;-90
2022/09/12 05:19:29;;;;;;;16.40;15.00;;;;;;;10.21;100.00;97766.27;105472;1282;24292;-89
2022/09/12 05:21:59;;;;;;;15.50;14.00;;;;;;;10.24;100.00;97767.51;105492;1283;25360;-90
2022/09/12 05:24:27;;;;;;;15.40;13.80;;;;;;;10.28;100.00;97770.13;105535;1283;25390;-90
2022/09/12 05:26:55;;;;;;;16.60;14.60;;;;;;;10.29;100.00;97772.11;105587;1283;23261;-89
2022/09/12 05:29:24;;;;;;;15.70;14.00;;;;;;;10.30;100.00;97775.13;105546;1282;22597;-90
2022/09/12 05:31:52;;;;;;;13.70;11.60;;;;;;;10.33;100.00;97781.80;105599;1283;22609;-90
2022/09/12 05:34:20;;;;;;;15.90;13.70;;;;;;;10.33;100.00;97779.42;105536;1282;24231;-88
2022/09/12 05:36:48;;;;;;;14.50;12.90;;;;;;;10.32;100.00;97784.23;105508;1282;24221;-89
2022/09/12 05:39:17;;;;;;;17.10;15.40;;;;;;;10.31;100.00;97790.98;105566;1283;24411;-90
2022/09/12 05:41:46;;;;;;;16.00;14.40;;;;;;;10.29;100.00;97787.41;107738;1282;23836;-87
2022/09/12 05:44:14;;;;;;;15.40;14.10;;;;;;;10.32;100.00;97789.23;107244;1282;22550;-88
2022/09/12 05:46:45;;;;;;;15.30;13.90;;;;;;;10.35;100.00;97790.48;105482;1283;22554;-86
2022/09/12 05:49:13;;;;;;;14.80;13.30;;;;;;;10.34;100.00;97783.82;105589;1282;23735;-90
2022/09/12 05:51:44;;;;;;;15.30;13.70;;;;;;;10.36;100.00;97782.31;105623;1282;25395;-87
2022/09/12 05:54:14;;;;;;;15.60;14.10;;;;;;;10.42;100.00;97784.19;105661;1282;22815;-88
2022/09/12 05:56:43;;;;;;;17.30;15.60;;;;;;;10.42;100.00;97787.87;105544;1282;23536;-88
2022/09/12 05:59:15;;;;;;;18.80;14.40;;;;;;;10.39;100.00;97786.34;105518;1284;23113;-87
2022/09/12 06:01:44;;;;;;;15.50;12.90;;;;;;;10.39;100.00;97786.88;105555;1283;22611;-89
2022/09/12 06:04:12;;;;;;;17.30;10.50;;;;;;;10.41;100.00;97787.06;105529;1282;22557;-89
2022/09/12 06:06:44;;;;;;;12.70;11.50;;;;;;;10.42;100.00;97786.02;105535;1282;24101;-88
2022/09/12 06:09:14;;;;;;;13.40;10.90;;;;;;;10.40;100.00;97784.07;105487;1284;22663;-90
2022/09/12 06:11:44;;;;;;;13.20;11.10;;;;;;;10.39;100.00;97784.15;105721;1282;22544;-89
2022/09/12 06:14:15;;;;;;;11.40;9.80;;;;;;;10.47;100.00;97793.05;105698;1282;22712;-91
2022/09/12 06:16:45;;;;;;;11.70;10.30;;;;;;;10.51;100.00;97792.15;105661;1282;22804;-89
2022/09/12 06:19:19;;;;;;;12.30;10.90;;;;;;;10.58;100.00;97795.20;105691;1282;25638;-90
2022/09/12 06:21:50;;;;;;;13.00;10.50;;;;;;;10.56;100.00;97799.33;105540;1283;25250;-90
2022/09/12 06:24:19;;;;;;;12.00;9.50;;;;;;;10.54;100.00;97796.08;105615;1282;22697;-90
2022/09/12 06:26:49;;;;;;;12.80;10.30;;;;;;;10.58;100.00;97795.67;105787;1282;26666;-91
2022/09/12 06:29:18;;;;;;;11.00;9.80;;;;;;;10.67;100.00;97796.46;105553;1283;22734;-90
2022/09/12 06:31:46;;;;;;;11.30;10.00;;;;;;;10.79;100.00;97795.03;105607;1282;22533;-89
2022/09/12 06:34:15;;;;;;;14.30;10.70;;;;;;;10.89;100.00;97792.27;105522;1284;25360;-90
2022/09/12 06:36:46;;;;;;;15.90;11.20;;;;;;;11.06;100.00;97795.89;105459;1282;23326;-89
2022/09/12 06:39:19;;;;;;;12.10;10.90;;;;;;;11.19;100.00;97800.66;105672;1282;24262;-90
2022/09/12 06:41:49;;;;;;;12.80;11.60;;;;;;;11.22;100.00;97803.67;105623;1282;25725;-89
2022/09/12 06:44:21;;;;;;;13.60;12.40;;;;;;;11.22;99.94;97804.05;105601;1282;25228;-89
2022/09/12 06:46:49;;;;;;;13.40;12.10;;;;;;;11.22;99.94;97800.52;105658;1283;25318;-88
2022/09/12 06:49:17;;;;;;;12.10;11.00;;;;;;;11.25;99.87;97802.67;105612;1282;25441;-90
2022/09/12 06:51:45;;;;;;;12.10;10.90;;;;;;;11.26;99.75;97809.52;105564;1282;25416;-88
2022/09/12 06:54:15;;;;;;;15.20;12.30;;;;;;;11.28;99.87;97810.38;105627;1282;24227;-90
2022/09/12 06:56:44;;;;;;;14.60;12.40;;;;;;;11.30;99.52;97815.95;105549;1283;24252;-91
2022/09/12 06:59:12;;;;;;;12.30;11.00;;;;;;;11.32;99.38;97823.30;105513;1284;23374;-90
2022/09/12 07:01:41;;;;;;;10.50;9.20;;;;;;;11.30;99.08;97827.05;105597;1282;24420;-88
2022/09/12 07:04:11;;;;;;;14.70;10.40;;;;;;;11.33;99.14;97825.84;105639;1282;25398;-89
2022/09/12 07:06:41;;;;;;;12.40;10.00;;;;;;;11.34;98.44;97829.44;105614;1282;22556;-88
2022/09/12 07:09:15;;;;;;;11.60;9.10;;;;;;;11.32;97.65;97828.09;105661;1282;22581;-89
2022/09/12 07:11:44;;;;;;;11.90;8.50;;;;;;;11.33;98.14;97825.64;105692;1282;24313;-90
2022/09/12 07:18:49;;;;;;;9.20;8.00;;;;;;;11.46;97.83;97827.48;105558;1282;23011;-90
2022/09/12 07:21:18;;;;;;;9.60;8.00;;;;;;;11.46;96.73;97829.96;105422;1282;22569;-90
2022/09/12 07:23:48;;;;;;;13.40;8.00;;;;;;;11.48;96.59;97831.77;105482;1282;24344;-89
2022/09/12 07:26:16;;;;;;;9.80;6.50;;;;;;;11.52;96.22;97832.60;105446;1282;22714;-89
2022/09/12 07:28:44;;;;;;;9.50;6.20;;;;;;;11.58;96.72;97829.66;105524;1282;22550;-92
2022/09/12 07:31:18;;;;;;;7.10;5.80;;;;;;;11.62;94.65;97835.04;105517;1282;22777;-89
2022/09/12 07:33:46;;;;;;;7.30;5.90;;;;;;;11.62;95.31;97833.27;105949;1281;22442;-82
2022/09/12 07:36:22;;;;;;;;;;;;;;;11.74;95.97;97832.02;108046;1282;22545;-86
2022/09/12 07:38:55;;;;;;;8.60;5.50;;;;;;;11.86;96.14;97836.53;106968;1282;25404;-90
2022/09/12 07:41:28;;;;;;;7.10;5.40;;;;;;;11.95;94.98;97839.98;105520;1282;22609;-88
2022/09/12 07:43:58;;;;;;;9.80;5.20;;;;;;;11.96;94.19;97837.11;105642;1282;26990;-91
2022/09/12 07:46:29;;;;;;;7.30;4.90;;;;;;;12.03;94.44;97841.15;105535;1282;25243;-90
2022/09/12 07:49:00;;;;;;;9.90;5.80;;;;;;;12.12;92.58;97838.14;105544;1282;25281;-91
2022/09/12 07:51:29;;;;;;;8.10;5.50;;;;;;;12.14;91.84;97841.06;105427;1282;22743;-91
2022/09/12 07:53:57;;;;;;;6.20;4.70;;;;;;;12.21;91.71;97841.69;105534;1282;22612;-92
2022/09/12 07:56:26;;;;;;;8.40;4.90;;;;;;;12.23;90.16;97844.34;105482;1282;25353;-90
2022/09/12 07:58:58;;;;;;;7.70;5.00;;;;;;;12.25;90.16;97841.61;105554;1282;23239;-88
2022/09/12 08:01:26;;;;;;;8.70;5.20;;;;;;;12.29;89.62;97843.22;105601;1282;25361;-90
2022/09/12 08:03:57;;;;;;;7.70;5.20;;;;;;;12.30;89.67;97845.05;106006;1282;24293;-92
2022/09/12 08:06:29;;;;;;;9.40;5.70;;;;;;;12.48;89.79;97846.66;105757;1282;24228;-89
2022/09/12 08:08:58;;;;;;;9.20;5.50;;;;;;;12.75;89.57;97843.80;105557;1282;23135;-91
2022/09/12 08:11:28;;;;;;;9.90;5.80;;;;;;;12.93;86.41;97847.06;105590;1282;22664;-90
2022/09/12 08:13:57;;;;;;;6.70;4.60;;;;;;;12.97;86.50;97849.34;105510;1282;22739;-90
2022/09/12 08:16:29;;;;;;;9.60;4.90;;;;;;;12.91;85.30;97851.19;105606;1282;22575;-88
2022/09/12 08:19:00;;;;;;;10.40;4.60;;;;;;;12.76;83.89;97848.86;105527;1282;25409;-92
2022/09/12 08:21:30;;;;;;;9.90;5.00;;;;;;;12.59;84.75;97846.98;105423;1282;23935;-91
2022/09/12 08:24:01;;;;;;;6.60;4.20;;;;;;;12.57;84.78;97849.98;106283;1282;22865;-92
2022/09/12 08:26:32;;;;;;;8.20;5.00;;;;;;;12.63;83.87;97849.16;106054;1282;23167;-88
2022/09/12 08:29:02;;;;;;;8.30;4.90;;;;;;;12.71;83.54;97848.72;105589;1283;22556;-90
2022/09/12 08:31:37;;;;;;;9.20;5.00;;;;;;;12.83;82.42;97850.27;105859;1282;22556;-90
2022/09/12 08:34:06;;;;;;;9.80;4.50;;;;;;;12.93;81.92;97849.35;105723;1282;25542;-90
2022/09/12 08:36:35;;;;;;;7.70;5.10;;;;;;;13.08;82.12;97842.02;105613;1282;24280;-90
2022/09/12 08:39:06;;;;;;;6.40;4.00;;;;;;;13.26;82.68;97841.52;105636;1282;22598;-91
2022/09/12 08:41:34;;;;;;;7.30;4.70;;;;;;;13.43;80.09;97839.66;105714;1283;25247;-91
2022/09/12 08:44:02;;;;;;;8.20;4.40;;;;;;;13.49;77.13;97840.71;105619;1282;22866;-91
2022/09/12 08:46:30;;;;;;;6.40;4.50;;;;;;;13.54;78.39;97845.91;105526;1282;25355;-89
2022/09/12 08:49:01;;;;;;;9.30;5.40;;;;;;;13.57;77.48;97843.55;105466;1282;24266;-92
2022/09/12 08:51:33;;;;;;;9.90;4.60;;;;;;;13.60;76.59;97840.61;105535;1282;23961;-92
2022/09/12 08:54:04;;;;;;;9.60;4.30;;;;;;;13.65;74.90;97846.06;105702;1282;25363;-89
2022/09/12 08:56:36;;;;;;;8.90;5.10;;;;;;;13.73;73.73;97838.35;105675;1282;22584;-91
2022/09/12 08:59:04;;;;;;;6.60;4.00;;;;;;;13.83;72.61;97841.29;105510;1282;22538;-91
2022/09/12 09:01:40;;;;;;;9.50;4.10;;;;;;;13.82;72.92;97832.45;105367;1282;25654;-90
2022/09/12 09:04:27;;;;;;;7.30;4.20;;;;;;;13.78;72.50;97845.70;105440;1282;25509;-90
2022/09/12 09:07:21;;;;;;;9.40;4.40;;;;;;;13.65;73.53;97840.50;105420;1282;25454;-89
2022/09/12 09:10:13;;;;;;;6.70;4.00;;;;;;;13.81;73.73;97842.19;105490;1282;24274;-91
2022/09/12 09:13:05;;;;;;;7.30;4.00;;;;;;;13.87;73.62;97842.62;105391;1282;22642;-90
2022/09/12 09:16:02;;;;;;;6.70;3.70;;;;;;;13.91;71.00;97848.89;105424;1282;22534;-91
2022/09/12 09:18:34;;;;;;;6.20;3.60;;;;;;;13.95;68.58;97844.90;105440;1282;22688;-90
2022/09/12 09:21:13;;;;;;;8.70;3.80;;;;;;;13.74;68.97;97847.64;105477;1282;22564;-90
2022/09/12 09:23:45;;;;;;;6.40;3.70;;;;;;;13.61;70.62;97847.05;105421;1284;22668;-90
2022/09/12 09:26:25;;;;;;;8.70;4.00;;;;;;;13.70;70.84;97848.31;105559;1282;24232;-90
2022/09/12 09:29:13;;;;;;;6.60;3.70;;;;;;;13.95;70.79;97856.80;106220;1282;22573;-83
2022/09/12 09:31:42;;;;;;;4.70;3.40;;;;;;;14.01;70.71;97848.10;108385;1282;22640;-89
2022/09/12 09:34:21;;;;;;;6.00;3.70;;;;;;;14.12;68.28;97845.30;107145;1282;25235;-89
2022/09/12 09:36:54;;;;;;;6.60;3.90;;;;;;;14.32;69.21;97847.77;105543;1282;24162;-92
2022/09/12 09:39:25;;;;;;;5.40;3.40;;;;;;;14.57;67.83;97850.10;105450;1282;23325;-91
2022/09/12 09:42:15;;;;;;;6.20;3.60;;;;;;;14.73;66.43;97849.38;105681;1282;22725;-91
2022/09/12 09:44:47;;;;;;;5.50;3.10;;;;;;;14.90;65.98;97847.48;105700;1282;22555;-91
2022/09/12 09:47:18;;;;;;;4.70;3.70;;;;;;;14.76;64.12;97848.86;105542;1282;24212;-91
2022/09/12 09:49:46;;;;;;;5.70;3.80;;;;;;;14.49;64.56;97843.81;105559;1282;22553;-90
2022/09/12 09:52:19;;;;;;;6.90;3.90;;;;;;;14.48;65.15;97846.02;105505;1282;22716;-90
2022/09/12 09:54:56;;;;;;;4.50;3.10;;;;;;;14.63;64.36;97840.38;104232;1282;1772474;-90
2022/09/12 09:57:38;;;;;;;7.80;3.30;;;;;;;14.71;62.97;97841.48;105512;1282;22703;-91
2022/09/12 10:00:26;;;;;;;9.00;3.40;;;;;;;14.88;63.45;97852.52;105825;1282;26620;-91
2022/09/12 10:03:03;;;;;;;4.50;3.10;;;;;;;15.01;63.34;97853.41;105908;1282;22734;-90
2022/09/12 10:05:36;;;;;;;9.10;3.50;;;;;;;14.89;61.79;97849.89;105588;1282;23956;-89
2022/09/12 10:08:07;;;;;;;5.10;3.20;;;;;;;14.72;60.85;97853.27;105658;1282;24267;-89
2022/09/12 10:10:34;;;;;;;6.10;3.10;;;;;;;14.77;60.51;97857.43;105712;1282;22618;-90
2022/09/12 10:13:22;;;;;;;7.40;3.10;;;;;;;14.88;61.49;97853.13;105762;1282;22712;-90
2022/09/12 10:16:00;;;;;;;4.40;3.10;;;;;;;15.00;61.44;97848.95;105413;1282;25368;-89
2022/09/12 10:18:41;;;;;;;6.80;3.70;;;;;;;15.18;61.81;97850.20;105991;1282;25250;-90
2022/09/12 10:21:22;;;;;;;6.00;3.50;;;;;;;15.17;61.83;97851.08;105464;1281;24116;-92
2022/09/12 10:23:58;;;;;;;5.20;3.10;;;;;;;15.13;62.51;97856.33;105524;1282;22899;-89
2022/09/12 10:26:32;;;;;;;6.80;3.40;;;;;;;15.07;61.98;97853.46;105471;1282;22702;-91
2022/09/12 10:29:24;;;;;;;5.80;3.30;;;;;;;15.05;62.76;97848.53;105476;1282;25878;-90
2022/09/12 10:31:57;;;;;;;5.50;3.00;;;;;;;15.35;63.19;97837.63;105467;1282;22859;-92
2022/09/12 10:34:31;;;;;;;5.80;3.40;;;;;;;15.62;61.08;97855.08;105822;1282;25826;-89
2022/09/12 10:37:08;;;;;;;5.30;3.50;;;;;;;15.70;59.90;97850.49;105630;1282;25465;-92
2022/09/12 10:39:37;;;;;;;5.00;3.20;;;;;;;15.87;60.06;97840.71;105804;1282;26645;-90
2022/09/12 10:42:06;;;;;;;4.50;3.10;;;;;;;15.86;58.25;97850.91;105670;1282;22541;-90
2022/09/12 10:44:34;;;;;;;3.80;3.00;;;;;;;15.84;58.07;97846.18;105687;1282;22690;-92
2022/09/12 10:47:23;;;;;;;5.30;3.10;;;;;;;15.88;56.81;97844.39;105689;1282;22989;-92
2022/09/12 10:49:51;;;;;;;6.30;3.00;;;;;;;15.90;55.35;97835.05;105938;1282;22487;-91
2022/09/12 10:52:24;;;;;;;6.40;3.00;;;;;;;15.88;56.21;97842.20;105922;1282;24046;-92
2022/09/12 10:54:53;;;;;;;8.50;3.00;;;;;;;16.02;56.92;97843.67;105816;1282;22516;-92
2022/09/12 10:57:32;;;;;;;7.30;3.00;;;;;;;16.07;56.62;97847.14;105719;1282;22703;-93
2022/09/12 11:00:16;;;;;;;7.00;3.40;;;;;;;15.74;55.62;97828.05;105688;1282;25310;-92
2022/09/12 11:03:21;;;;;;;5.00;2.90;;;;;;;15.80;56.87;97846.27;105728;1281;22751;-91
2022/09/12 11:06:01;;;;;;;7.00;3.00;;;;;;;15.89;54.90;97834.50;106159;1282;22907;-94
2022/09/12 11:08:36;;;;;;;7.20;3.20;;;;;;;15.95;55.61;97829.34;106278;1282;22487;-91
2022/09/12 11:11:13;;;;;;;7.20;2.80;;;;;;;16.22;57.26;97824.34;106524;1282;22497;-93
2022/09/12 11:14:06;;;;;;;4.60;2.80;;;;;;;16.56;54.54;97835.40;106599;1282;24056;-89
2022/09/12 11:17:08;;;;;;;6.40;2.90;;;;;;;16.67;53.77;97839.79;106592;1281;22566;-89
2022/09/12 11:20:02;;;;;;;3.50;2.30;;;;;;;16.92;52.11;97842.86;107953;1282;22636;-87
2022/09/12 11:22:59;;;;;;;5.80;3.20;;;;;;;17.07;53.00;97836.01;109217;1281;23593;-89
2022/09/12 11:25:34;;;;;;;5.60;3.00;;;;;;;17.20;52.97;97835.23;106087;1282;23959;-90
2022/09/12 11:28:19;;;;;;;4.10;2.80;;;;;;;16.94;50.85;97841.59;106077;1282;23347;-92
2022/09/12 11:31:11;;;;;;;4.80;2.70;;;;;;;16.56;51.13;97837.02;106179;1282;22567;-92
2022/09/12 11:33:45;;;;;;;6.70;2.70;;;;;;;16.48;52.00;97841.98;106752;1282;25362;-91
2022/09/12 11:36:26;;;;;;;4.00;2.40;;;;;;;16.60;50.60;97840.35;106411;1282;23105;-92
2022/09/12 11:39:04;;;;;;;4.20;2.80;;;;;;;16.56;51.02;97837.56;106073;1282;25364;-90
2022/09/12 11:41:39;;;;;;;5.60;2.90;;;;;;;16.45;52.19;97839.40;106178;1282;22574;-91
2022/09/12 11:44:36;;;;;;;3.40;2.70;;;;;;;16.56;52.34;97840.13;106338;1282;25315;-92
2022/09/12 11:47:11;;;;;;;3.70;2.60;;;;;;;16.78;50.38;97834.64;106742;1282;25290;-90